sensor_id;sensor_type;location;lat;lon;timestamp;pressure;altitude;pressure_sealevel;temperature;humidity
10060;BME280;5069;49.306;8.636;2023-09-18T00:00:28;99715.78;;;24.01;73.25
10060;BME280;5069;49.306;8.636;2023-09-18T00:03:30;99708.69;;;24.00;73.16
10060;BME280;5069;49.306;8.636;2023-09-18T00:06:32;99707.38;;;24.04;72.61
10060;BME280;5069;49.306;8.636;2023-09-18T00:09:34;99701.84;;;24.06;72.65
10060;BME280;5069;49.306;8.636;2023-09-18T00:12:35;99696.63;;;24.04;72.10
10060;BME280;5069;49.306;8.636;2023-09-18T00:15:37;99689.72;;;24.02;72.47
10060;BME280;5069;49.306;8.636;2023-09-18T00:18:39;99688.16;;;23.99;72.21
10060;BME280;5069;49.306;8.636;2023-09-18T00:21:42;99689.56;;;24.03;71.88
10060;BME280;5069;49.306;8.636;2023-09-18T00:24:43;99684.56;;;24.08;71.58
10060;BME280;5069;49.306;8.636;2023-09-18T00:27:45;99673.78;;;24.08;71.90
10060;BME280;5069;49.306;8.636;2023-09-18T00:30:47;99667.69;;;24.06;71.51
10060;BME280;5069;49.306;8.636;2023-09-18T00:33:50;99671.09;;;24.08;71.75
10060;BME280;5069;49.306;8.636;2023-09-18T00:36:51;99673.09;;;24.06;71.44
10060;BME280;5069;49.306;8.636;2023-09-18T00:39:54;99668.22;;;24.10;71.06
10060;BME280;5069;49.306;8.636;2023-09-18T00:42:56;99669.06;;;24.10;70.97
10060;BME280;5069;49.306;8.636;2023-09-18T00:45:58;99658.31;;;24.10;71.39
10060;BME280;5069;49.306;8.636;2023-09-18T00:48:59;99650.56;;;24.07;71.22
10060;BME280;5069;49.306;8.636;2023-09-18T00:52:02;99641.47;;;24.08;71.12
10060;BME280;5069;49.306;8.636;2023-09-18T00:55:05;99657.63;;;24.08;71.41
10060;BME280;5069;49.306;8.636;2023-09-18T00:58:08;99659.78;;;24.05;71.65
10060;BME280;5069;49.306;8.636;2023-09-18T01:01:11;99655.25;;;24.05;72.38
10060;BME280;5069;49.306;8.636;2023-09-18T01:04:13;99659.31;;;24.09;72.56
10060;BME280;5069;49.306;8.636;2023-09-18T01:07:15;99667.78;;;24.14;72.37
10060;BME280;5069;49.306;8.636;2023-09-18T01:10:16;99657.19;;;23.95;73.56
10060;BME280;5069;49.306;8.636;2023-09-18T01:13:22;99660.47;;;23.89;74.09
10060;BME280;5069;49.306;8.636;2023-09-18T01:16:27;99654.41;;;23.87;74.35
10060;BME280;5069;49.306;8.636;2023-09-18T01:19:46;99664.78;;;23.82;74.86
10060;BME280;5069;49.306;8.636;2023-09-18T01:22:48;99655.19;;;23.79;75.20
10060;BME280;5069;49.306;8.636;2023-09-18T01:25:51;99650.28;;;23.75;75.96
10060;BME280;5069;49.306;8.636;2023-09-18T01:28:52;99650.09;;;23.76;75.80
10060;BME280;5069;49.306;8.636;2023-09-18T01:31:54;99655.34;;;23.78;75.91
10060;BME280;5069;49.306;8.636;2023-09-18T01:34:57;99662.03;;;23.74;76.46
10060;BME280;5069;49.306;8.636;2023-09-18T01:37:59;99660.00;;;23.76;76.73
10060;BME280;5069;49.306;8.636;2023-09-18T01:41:01;99656.94;;;23.71;76.94
10060;BME280;5069;49.306;8.636;2023-09-18T01:44:03;99660.94;;;23.67;77.44
10060;BME280;5069;49.306;8.636;2023-09-18T01:47:09;99705.09;;;23.74;77.68
10060;BME280;5069;49.306;8.636;2023-09-18T01:50:12;99730.28;;;23.73;77.38
10060;BME280;5069;49.306;8.636;2023-09-18T01:53:14;99720.66;;;23.70;77.89
10060;BME280;5069;49.306;8.636;2023-09-18T01:56:16;99740.47;;;23.79;77.83
10060;BME280;5069;49.306;8.636;2023-09-18T01:59:18;99722.13;;;23.65;79.14
10060;BME280;5069;49.306;8.636;2023-09-18T02:02:20;99708.41;;;23.58;87.76
10060;BME280;5069;49.306;8.636;2023-09-18T02:05:42;99713.84;;;23.21;95.90
10060;BME280;5069;49.306;8.636;2023-09-18T02:08:44;99724.19;;;23.16;98.70
10060;BME280;5069;49.306;8.636;2023-09-18T02:11:47;99730.00;;;23.12;98.35
10060;BME280;5069;49.306;8.636;2023-09-18T02:14:49;99721.38;;;23.08;100.00
10060;BME280;5069;49.306;8.636;2023-09-18T02:17:50;99728.59;;;23.07;100.00
10060;BME280;5069;49.306;8.636;2023-09-18T02:20:53;99747.28;;;23.09;100.00
10060;BME280;5069;49.306;8.636;2023-09-18T02:23:55;99746.47;;;22.99;100.00
10060;BME280;5069;49.306;8.636;2023-09-18T02:26:56;99768.28;;;22.86;100.00
10060;BME280;5069;49.306;8.636;2023-09-18T02:29:58;99786.41;;;22.75;100.00
10060;BME280;5069;49.306;8.636;2023-09-18T02:32:59;99777.47;;;22.64;100.00
10060;BME280;5069;49.306;8.636;2023-09-18T02:36:01;99778.19;;;22.66;100.00
10060;BME280;5069;49.306;8.636;2023-09-18T02:39:03;99773.81;;;22.65;100.00
10060;BME280;5069;49.306;8.636;2023-09-18T02:42:05;99759.22;;;22.68;100.00
10060;BME280;5069;49.306;8.636;2023-09-18T02:45:07;99741.97;;;22.71;100.00
10060;BME280;5069;49.306;8.636;2023-09-18T02:48:09;99735.66;;;22.72;100.00
10060;BME280;5069;49.306;8.636;2023-09-18T02:51:11;99728.28;;;22.74;100.00
10060;BME280;5069;49.306;8.636;2023-09-18T02:54:12;99712.88;;;22.76;100.00
10060;BME280;5069;49.306;8.636;2023-09-18T02:57:14;99692.66;;;22.72;100.00
10060;BME280;5069;49.306;8.636;2023-09-18T03:00:16;99660.81;;;22.77;100.00
10060;BME280;5069;49.306;8.636;2023-09-18T03:03:18;99674.53;;;22.83;99.53
10060;BME280;5069;49.306;8.636;2023-09-18T03:06:19;99678.88;;;22.84;98.33
10060;BME280;5069;49.306;8.636;2023-09-18T03:09:21;99686.41;;;22.81;98.38
10060;BME280;5069;49.306;8.636;2023-09-18T03:12:23;99687.25;;;22.81;97.40
10060;BME280;5069;49.306;8.636;2023-09-18T03:15:24;99690.47;;;22.85;98.13
10060;BME280;5069;49.306;8.636;2023-09-18T03:18:26;99695.56;;;22.88;97.44
10060;BME280;5069;49.306;8.636;2023-09-18T03:21:29;99707.19;;;22.88;98.38
10060;BME280;5069;49.306;8.636;2023-09-18T03:24:32;99692.03;;;22.87;99.37
10060;BME280;5069;49.306;8.636;2023-09-18T03:27:33;99719.34;;;22.83;97.89
10060;BME280;5069;49.306;8.636;2023-09-18T03:30:36;99728.69;;;22.79;99.11
10060;BME280;5069;49.306;8.636;2023-09-18T03:33:38;99737.91;;;22.76;97.26
10060;BME280;5069;49.306;8.636;2023-09-18T03:36:39;99745.38;;;22.73;98.28
10060;BME280;5069;49.306;8.636;2023-09-18T03:39:41;99742.97;;;22.70;98.49
10060;BME280;5069;49.306;8.636;2023-09-18T03:42:43;99744.25;;;22.65;99.00
10060;BME280;5069;49.306;8.636;2023-09-18T03:45:44;99749.03;;;22.62;100.00
10060;BME280;5069;49.306;8.636;2023-09-18T03:48:46;99764.63;;;22.58;100.00
10060;BME280;5069;49.306;8.636;2023-09-18T03:51:48;99774.53;;;22.48;100.00
10060;BME280;5069;49.306;8.636;2023-09-18T03:54:50;99787.53;;;22.43;100.00
10060;BME280;5069;49.306;8.636;2023-09-18T03:57:52;99788.94;;;22.38;100.00
10060;BME280;5069;49.306;8.636;2023-09-18T04:00:54;99792.75;;;22.25;100.00
10060;BME280;5069;49.306;8.636;2023-09-18T04:03:55;99788.63;;;22.21;100.00
10060;BME280;5069;49.306;8.636;2023-09-18T04:06:57;99790.50;;;22.21;100.00
10060;BME280;5069;49.306;8.636;2023-09-18T04:09:59;99780.72;;;22.10;100.00
10060;BME280;5069;49.306;8.636;2023-09-18T04:13:00;99770.56;;;22.14;100.00
10060;BME280;5069;49.306;8.636;2023-09-18T04:16:02;99778.44;;;22.06;100.00
10060;BME280;5069;49.306;8.636;2023-09-18T04:19:05;99762.56;;;21.93;100.00
10060;BME280;5069;49.306;8.636;2023-09-18T04:22:07;99763.66;;;21.71;100.00
10060;BME280;5069;49.306;8.636;2023-09-18T04:25:09;99743.28;;;21.50;100.00
10060;BME280;5069;49.306;8.636;2023-09-18T04:28:12;99725.72;;;21.36;100.00
10060;BME280;5069;49.306;8.636;2023-09-18T04:31:13;99724.34;;;21.11;100.00
10060;BME280;5069;49.306;8.636;2023-09-18T04:34:15;99729.84;;;21.10;100.00
10060;BME280;5069;49.306;8.636;2023-09-18T04:37:17;99723.59;;;20.99;100.00
10060;BME280;5069;49.306;8.636;2023-09-18T04:40:19;99711.81;;;20.91;100.00
10060;BME280;5069;49.306;8.636;2023-09-18T04:43:20;99710.53;;;20.85;100.00
10060;BME280;5069;49.306;8.636;2023-09-18T04:46:22;99701.25;;;20.89;100.00
10060;BME280;5069;49.306;8.636;2023-09-18T04:49:25;99678.13;;;20.88;100.00
10060;BME280;5069;49.306;8.636;2023-09-18T04:52:27;99679.00;;;20.98;100.00
10060;BME280;5069;49.306;8.636;2023-09-18T04:55:28;99676.53;;;21.07;100.00
10060;BME280;5069;49.306;8.636;2023-09-18T04:58:31;99666.06;;;21.13;100.00
10060;BME280;5069;49.306;8.636;2023-09-18T05:01:33;99672.63;;;21.20;100.00
10060;BME280;5069;49.306;8.636;2023-09-18T05:04:34;99656.13;;;21.25;100.00
10060;BME280;5069;49.306;8.636;2023-09-18T05:07:36;99657.72;;;21.27;100.00
10060;BME280;5069;49.306;8.636;2023-09-18T05:10:38;99666.31;;;21.31;100.00
10060;BME280;5069;49.306;8.636;2023-09-18T05:13:39;99670.56;;;21.33;100.00
10060;BME280;5069;49.306;8.636;2023-09-18T05:16:41;99659.97;;;21.32;100.00
10060;BME280;5069;49.306;8.636;2023-09-18T05:19:43;99661.38;;;21.36;100.00
10060;BME280;5069;49.306;8.636;2023-09-18T05:22:45;99653.06;;;21.39;100.00
10060;BME280;5069;49.306;8.636;2023-09-18T05:25:47;99652.94;;;21.40;100.00
10060;BME280;5069;49.306;8.636;2023-09-18T05:28:48;99690.06;;;21.45;100.00
10060;BME280;5069;49.306;8.636;2023-09-18T05:31:51;99685.25;;;21.39;100.00
10060;BME280;5069;49.306;8.636;2023-09-18T05:34:53;99679.47;;;21.34;100.00
10060;BME280;5069;49.306;8.636;2023-09-18T05:37:54;99677.47;;;21.36;100.00
10060;BME280;5069;49.306;8.636;2023-09-18T05:40:58;99681.16;;;21.35;100.00
10060;BME280;5069;49.306;8.636;2023-09-18T05:44:00;99696.97;;;21.38;100.00
10060;BME280;5069;49.306;8.636;2023-09-18T05:47:04;99711.63;;;21.34;100.00
10060;BME280;5069;49.306;8.636;2023-09-18T05:50:06;99724.06;;;21.35;100.00
10060;BME280;5069;49.306;8.636;2023-09-18T05:53:08;99739.97;;;21.06;100.00
10060;BME280;5069;49.306;8.636;2023-09-18T05:56:10;99746.19;;;21.07;100.00
10060;BME280;5069;49.306;8.636;2023-09-18T05:59:12;99743.63;;;21.05;100.00
10060;BME280;5069;49.306;8.636;2023-09-18T06:02:13;99751.47;;;20.97;100.00
10060;BME280;5069;49.306;8.636;2023-09-18T06:05:17;99744.03;;;21.00;100.00
10060;BME280;5069;49.306;8.636;2023-09-18T06:08:22;99748.44;;;21.01;100.00
10060;BME280;5069;49.306;8.636;2023-09-18T06:11:25;99749.84;;;21.06;100.00
10060;BME280;5069;49.306;8.636;2023-09-18T06:14:26;99749.56;;;21.09;100.00
10060;BME280;5069;49.306;8.636;2023-09-18T06:17:28;99754.53;;;21.13;100.00
10060;BME280;5069;49.306;8.636;2023-09-18T06:20:29;99765.41;;;21.12;100.00
10060;BME280;5069;49.306;8.636;2023-09-18T06:23:31;99766.19;;;21.02;100.00
10060;BME280;5069;49.306;8.636;2023-09-18T06:26:33;99788.34;;;21.04;100.00
10060;BME280;5069;49.306;8.636;2023-09-18T06:29:35;99780.88;;;21.08;100.00
10060;BME280;5069;49.306;8.636;2023-09-18T06:32:37;99789.53;;;21.12;100.00
10060;BME280;5069;49.306;8.636;2023-09-18T06:35:39;99790.38;;;21.12;100.00
10060;BME280;5069;49.306;8.636;2023-09-18T06:38:41;99800.03;;;21.03;100.00
10060;BME280;5069;49.306;8.636;2023-09-18T06:41:42;99794.09;;;21.00;100.00
10060;BME280;5069;49.306;8.636;2023-09-18T06:44:46;99799.38;;;20.90;100.00
10060;BME280;5069;49.306;8.636;2023-09-18T06:47:48;99801.38;;;20.88;100.00
10060;BME280;5069;49.306;8.636;2023-09-18T06:50:51;99802.53;;;20.95;100.00
10060;BME280;5069;49.306;8.636;2023-09-18T06:53:53;99818.66;;;21.05;100.00
10060;BME280;5069;49.306;8.636;2023-09-18T06:56:55;99828.59;;;21.14;100.00
10060;BME280;5069;49.306;8.636;2023-09-18T06:59:56;99822.38;;;21.14;100.00
10060;BME280;5069;49.306;8.636;2023-09-18T07:02:58;99820.47;;;21.16;100.00
10060;BME280;5069;49.306;8.636;2023-09-18T07:06:00;99831.19;;;21.16;100.00
10060;BME280;5069;49.306;8.636;2023-09-18T07:09:01;99843.06;;;21.23;100.00
10060;BME280;5069;49.306;8.636;2023-09-18T07:12:06;99841.09;;;21.25;100.00
10060;BME280;5069;49.306;8.636;2023-09-18T07:15:08;99854.97;;;21.30;100.00
10060;BME280;5069;49.306;8.636;2023-09-18T07:18:10;99853.78;;;21.23;100.00
10060;BME280;5069;49.306;8.636;2023-09-18T07:21:16;99856.06;;;21.27;100.00
10060;BME280;5069;49.306;8.636;2023-09-18T07:24:17;99867.31;;;21.21;100.00
10060;BME280;5069;49.306;8.636;2023-09-18T07:27:19;99861.72;;;21.24;100.00
10060;BME280;5069;49.306;8.636;2023-09-18T07:30:20;99865.41;;;21.33;100.00
10060;BME280;5069;49.306;8.636;2023-09-18T07:33:23;99859.78;;;21.36;100.00
10060;BME280;5069;49.306;8.636;2023-09-18T07:36:24;99856.41;;;21.34;100.00
10060;BME280;5069;49.306;8.636;2023-09-18T07:39:26;99854.28;;;21.37;100.00
10060;BME280;5069;49.306;8.636;2023-09-18T07:42:31;99851.41;;;21.50;100.00
10060;BME280;5069;49.306;8.636;2023-09-18T07:45:33;99856.66;;;21.31;100.00
10060;BME280;5069;49.306;8.636;2023-09-18T07:48:35;99854.13;;;21.29;100.00
10060;BME280;5069;49.306;8.636;2023-09-18T07:51:38;99862.88;;;21.31;100.00
10060;BME280;5069;49.306;8.636;2023-09-18T07:54:39;99864.53;;;21.23;100.00
10060;BME280;5069;49.306;8.636;2023-09-18T07:57:41;99868.53;;;21.38;100.00
10060;BME280;5069;49.306;8.636;2023-09-18T08:00:43;99867.00;;;21.35;100.00
10060;BME280;5069;49.306;8.636;2023-09-18T08:03:44;99875.09;;;21.45;100.00
10060;BME280;5069;49.306;8.636;2023-09-18T08:06:46;99875.09;;;21.45;100.00
10060;BME280;5069;49.306;8.636;2023-09-18T08:09:48;99865.78;;;21.49;100.00
10060;BME280;5069;49.306;8.636;2023-09-18T08:12:50;99869.50;;;21.58;100.00
10060;BME280;5069;49.306;8.636;2023-09-18T08:15:53;99865.25;;;21.55;100.00
10060;BME280;5069;49.306;8.636;2023-09-18T08:18:55;99858.19;;;21.54;100.00
10060;BME280;5069;49.306;8.636;2023-09-18T08:21:58;99856.78;;;21.60;100.00
10060;BME280;5069;49.306;8.636;2023-09-18T08:25:06;99846.06;;;21.60;100.00
10060;BME280;5069;49.306;8.636;2023-09-18T08:28:12;99844.78;;;21.54;100.00
10060;BME280;5069;49.306;8.636;2023-09-18T08:31:16;99831.13;;;21.57;100.00
10060;BME280;5069;49.306;8.636;2023-09-18T08:34:18;99833.38;;;21.62;100.00
10060;BME280;5069;49.306;8.636;2023-09-18T08:37:22;99818.16;;;21.62;100.00
10060;BME280;5069;49.306;8.636;2023-09-18T08:40:24;99813.84;;;21.50;100.00
10060;BME280;5069;49.306;8.636;2023-09-18T08:43:27;99813.56;;;21.53;100.00
10060;BME280;5069;49.306;8.636;2023-09-18T08:46:30;99826.50;;;21.38;100.00
10060;BME280;5069;49.306;8.636;2023-09-18T08:49:35;99819.72;;;21.34;100.00
10060;BME280;5069;49.306;8.636;2023-09-18T08:52:37;99835.47;;;21.28;100.00
10060;BME280;5069;49.306;8.636;2023-09-18T08:55:39;99829.59;;;21.34;100.00
10060;BME280;5069;49.306;8.636;2023-09-18T08:58:41;99824.34;;;21.32;100.00
10060;BME280;5069;49.306;8.636;2023-09-18T09:01:44;99834.41;;;21.40;100.00
10060;BME280;5069;49.306;8.636;2023-09-18T09:04:45;99832.44;;;21.42;100.00
10060;BME280;5069;49.306;8.636;2023-09-18T09:07:47;99839.50;;;21.43;100.00
10060;BME280;5069;49.306;8.636;2023-09-18T09:10:49;99851.97;;;21.54;100.00
10060;BME280;5069;49.306;8.636;2023-09-18T09:14:09;99860.63;;;21.57;100.00
10060;BME280;5069;49.306;8.636;2023-09-18T09:17:18;99860.31;;;21.60;100.00
10060;BME280;5069;49.306;8.636;2023-09-18T09:20:19;99866.88;;;21.67;100.00
10060;BME280;5069;49.306;8.636;2023-09-18T09:23:21;99881.25;;;21.66;100.00
10060;BME280;5069;49.306;8.636;2023-09-18T09:26:23;99890.72;;;21.70;100.00
10060;BME280;5069;49.306;8.636;2023-09-18T09:29:25;99888.75;;;21.72;100.00
10060;BME280;5069;49.306;8.636;2023-09-18T09:32:31;99892.44;;;21.71;100.00
10060;BME280;5069;49.306;8.636;2023-09-18T09:35:36;99914.00;;;21.91;100.00
10060;BME280;5069;49.306;8.636;2023-09-18T09:38:38;99924.94;;;21.78;100.00
10060;BME280;5069;49.306;8.636;2023-09-18T09:41:45;99921.16;;;21.80;100.00
10060;BME280;5069;49.306;8.636;2023-09-18T09:44:47;99931.69;;;21.72;100.00
10060;BME280;5069;49.306;8.636;2023-09-18T09:47:53;99907.09;;;21.67;100.00
10060;BME280;5069;49.306;8.636;2023-09-18T09:50:59;99895.72;;;21.75;100.00
10060;BME280;5069;49.306;8.636;2023-09-18T09:54:02;99891.56;;;21.71;100.00
10060;BME280;5069;49.306;8.636;2023-09-18T09:57:04;99886.09;;;21.72;100.00
10060;BME280;5069;49.306;8.636;2023-09-18T10:00:07;99881.16;;;21.77;100.00
10060;BME280;5069;49.306;8.636;2023-09-18T10:03:28;99883.16;;;21.75;100.00
10060;BME280;5069;49.306;8.636;2023-09-18T10:06:33;99877.81;;;21.85;100.00
10060;BME280;5069;49.306;8.636;2023-09-18T10:09:39;99887.38;;;21.78;100.00
10060;BME280;5069;49.306;8.636;2023-09-18T10:12:43;99880.19;;;21.78;100.00
10060;BME280;5069;49.306;8.636;2023-09-18T10:15:48;99878.38;;;21.89;100.00
10060;BME280;5069;49.306;8.636;2023-09-18T10:25:21;99879.75;;;22.04;100.00
10060;BME280;5069;49.306;8.636;2023-09-18T10:28:24;99870.56;;;22.16;100.00
10060;BME280;5069;49.306;8.636;2023-09-18T10:31:29;99889.94;;;22.10;100.00
10060;BME280;5069;49.306;8.636;2023-09-18T10:34:31;99889.09;;;22.19;100.00
10060;BME280;5069;49.306;8.636;2023-09-18T10:37:36;99883.31;;;22.33;100.00
10060;BME280;5069;49.306;8.636;2023-09-18T10:40:37;99869.03;;;22.23;100.00
10060;BME280;5069;49.306;8.636;2023-09-18T10:43:40;99879.66;;;22.34;100.00
10060;BME280;5069;49.306;8.636;2023-09-18T10:46:42;99872.31;;;22.36;100.00
10060;BME280;5069;49.306;8.636;2023-09-18T10:49:43;99869.22;;;22.50;100.00
10060;BME280;5069;49.306;8.636;2023-09-18T10:52:46;99856.94;;;22.38;100.00
10060;BME280;5069;49.306;8.636;2023-09-18T10:55:48;99853.94;;;22.41;100.00
10060;BME280;5069;49.306;8.636;2023-09-18T10:58:59;99858.06;;;22.64;100.00
10060;BME280;5069;49.306;8.636;2023-09-18T11:02:03;99860.19;;;22.71;100.00
10060;BME280;5069;49.306;8.636;2023-09-18T11:05:06;99857.41;;;22.82;100.00
10060;BME280;5069;49.306;8.636;2023-09-18T11:08:32;99865.88;;;22.87;99.22
10060;BME280;5069;49.306;8.636;2023-09-18T11:11:35;99853.41;;;22.86;99.34
10060;BME280;5069;49.306;8.636;2023-09-18T11:18:01;99847.88;;;22.97;97.66
10060;BME280;5069;49.306;8.636;2023-09-18T11:21:11;99849.75;;;23.06;95.61
10060;BME280;5069;49.306;8.636;2023-09-18T11:24:18;99854.69;;;23.01;94.89
10060;BME280;5069;49.306;8.636;2023-09-18T11:27:24;99849.91;;;22.95;94.59
10060;BME280;5069;49.306;8.636;2023-09-18T11:30:26;99846.03;;;23.07;95.58
10060;BME280;5069;49.306;8.636;2023-09-18T11:33:40;99850.56;;;23.16;94.29
10060;BME280;5069;49.306;8.636;2023-09-18T11:36:42;99870.66;;;23.12;92.79
10060;BME280;5069;49.306;8.636;2023-09-18T11:39:44;99869.22;;;23.27;91.53
10060;BME280;5069;49.306;8.636;2023-09-18T11:43:18;99875.16;;;23.21;91.98
10060;BME280;5069;49.306;8.636;2023-09-18T11:46:21;99879.56;;;23.22;93.24
10060;BME280;5069;49.306;8.636;2023-09-18T11:49:24;99869.63;;;23.32;91.28
10060;BME280;5069;49.306;8.636;2023-09-18T11:52:30;99874.81;;;23.43;90.54
10060;BME280;5069;49.306;8.636;2023-09-18T11:55:31;99872.00;;;23.55;90.10
10060;BME280;5069;49.306;8.636;2023-09-18T11:58:44;99870.22;;;23.73;90.88
10060;BME280;5069;49.306;8.636;2023-09-18T12:01:54;99866.69;;;24.00;88.00
10060;BME280;5069;49.306;8.636;2023-09-18T12:04:56;99872.28;;;24.16;84.22
10060;BME280;5069;49.306;8.636;2023-09-18T12:07:58;99876.09;;;24.23;81.09
10060;BME280;5069;49.306;8.636;2023-09-18T12:10:59;99869.66;;;24.06;82.16
10060;BME280;5069;49.306;8.636;2023-09-18T12:14:02;99859.00;;;24.05;80.74
10060;BME280;5069;49.306;8.636;2023-09-18T12:17:04;99856.19;;;24.06;80.19
10060;BME280;5069;49.306;8.636;2023-09-18T12:20:06;99857.31;;;24.04;79.54
10060;BME280;5069;49.306;8.636;2023-09-18T12:23:07;99857.50;;;24.02;81.41
10060;BME280;5069;49.306;8.636;2023-09-18T12:26:13;99846.97;;;24.09;79.68
10060;BME280;5069;49.306;8.636;2023-09-18T12:29:15;99852.19;;;24.20;80.06
10060;BME280;5069;49.306;8.636;2023-09-18T12:32:17;99857.56;;;24.20;77.52
10060;BME280;5069;49.306;8.636;2023-09-18T12:35:19;99848.41;;;24.31;76.55
10060;BME280;5069;49.306;8.636;2023-09-18T12:38:20;99858.22;;;24.22;75.72
10060;BME280;5069;49.306;8.636;2023-09-18T12:41:26;99864.78;;;24.19;77.30
10060;BME280;5069;49.306;8.636;2023-09-18T12:44:33;99859.78;;;24.24;75.57
10060;BME280;5069;49.306;8.636;2023-09-18T12:47:35;99862.66;;;24.13;77.91
10060;BME280;5069;49.306;8.636;2023-09-18T12:50:41;99845.94;;;24.10;76.64
10060;BME280;5069;49.306;8.636;2023-09-18T12:53:42;99849.50;;;24.10;76.85
10060;BME280;5069;49.306;8.636;2023-09-18T12:56:44;99853.47;;;24.34;74.95
10060;BME280;5069;49.306;8.636;2023-09-18T12:59:46;99858.97;;;24.42;72.23
10060;BME280;5069;49.306;8.636;2023-09-18T13:02:50;99850.94;;;24.50;71.86
10060;BME280;5069;49.306;8.636;2023-09-18T13:06:09;99843.47;;;24.44;72.34
10060;BME280;5069;49.306;8.636;2023-09-18T13:09:17;99836.41;;;24.43;74.59
10060;BME280;5069;49.306;8.636;2023-09-18T13:12:21;99829.81;;;24.37;72.42
10060;BME280;5069;49.306;8.636;2023-09-18T13:15:30;99835.34;;;24.36;73.39
10060;BME280;5069;49.306;8.636;2023-09-18T13:18:32;99846.88;;;24.46;74.03
10060;BME280;5069;49.306;8.636;2023-09-18T13:21:34;99836.31;;;24.35;70.91
10060;BME280;5069;49.306;8.636;2023-09-18T13:24:37;99831.31;;;24.40;71.76
10060;BME280;5069;49.306;8.636;2023-09-18T13:27:39;99829.09;;;24.53;70.67
10060;BME280;5069;49.306;8.636;2023-09-18T13:30:42;99821.16;;;24.69;69.01
10060;BME280;5069;49.306;8.636;2023-09-18T13:33:43;99822.84;;;24.70;68.34
10060;BME280;5069;49.306;8.636;2023-09-18T13:36:47;99827.03;;;24.47;67.96
10060;BME280;5069;49.306;8.636;2023-09-18T13:39:48;99819.94;;;24.46;68.74
10060;BME280;5069;49.306;8.636;2023-09-18T13:42:50;99822.84;;;24.35;67.04
10060;BME280;5069;49.306;8.636;2023-09-18T13:45:51;99817.47;;;24.35;68.46
10060;BME280;5069;49.306;8.636;2023-09-18T13:48:53;99817.47;;;24.35;67.95
10060;BME280;5069;49.306;8.636;2023-09-18T13:51:55;99813.47;;;24.39;69.08
10060;BME280;5069;49.306;8.636;2023-09-18T13:54:58;99822.94;;;24.43;68.17
10060;BME280;5069;49.306;8.636;2023-09-18T13:58:00;99821.31;;;24.50;67.84
10060;BME280;5069;49.306;8.636;2023-09-18T14:01:04;99820.63;;;24.65;68.96
10060;BME280;5069;49.306;8.636;2023-09-18T14:04:06;99804.59;;;24.99;65.95
10060;BME280;5069;49.306;8.636;2023-09-18T14:07:08;99802.31;;;25.13;66.18
10060;BME280;5069;49.306;8.636;2023-09-18T14:10:10;99796.69;;;25.32;64.87
10060;BME280;5069;49.306;8.636;2023-09-18T14:13:12;99785.34;;;25.54;63.60
10060;BME280;5069;49.306;8.636;2023-09-18T14:16:14;99784.94;;;25.41;62.45
10060;BME280;5069;49.306;8.636;2023-09-18T14:19:16;99784.22;;;25.57;62.00
10060;BME280;5069;49.306;8.636;2023-09-18T14:22:18;99789.13;;;25.69;60.77
10060;BME280;5069;49.306;8.636;2023-09-18T14:25:19;99777.88;;;25.82;61.60
10060;BME280;5069;49.306;8.636;2023-09-18T14:28:21;99777.56;;;25.85;60.17
10060;BME280;5069;49.306;8.636;2023-09-18T14:31:23;99769.66;;;25.91;61.04
10060;BME280;5069;49.306;8.636;2023-09-18T14:34:25;99755.84;;;26.11;59.59
10060;BME280;5069;49.306;8.636;2023-09-18T14:37:26;99754.56;;;26.23;59.26
10060;BME280;5069;49.306;8.636;2023-09-18T14:40:28;99763.34;;;26.25;58.31
10060;BME280;5069;49.306;8.636;2023-09-18T14:43:29;99753.22;;;26.51;57.62
10060;BME280;5069;49.306;8.636;2023-09-18T14:46:31;99756.41;;;26.55;56.37
10060;BME280;5069;49.306;8.636;2023-09-18T14:49:36;99747.81;;;26.67;56.54
10060;BME280;5069;49.306;8.636;2023-09-18T14:52:38;99739.69;;;26.76;55.09
10060;BME280;5069;49.306;8.636;2023-09-18T14:55:39;99729.53;;;26.86;55.16
10060;BME280;5069;49.306;8.636;2023-09-18T14:58:41;99725.84;;;26.70;54.69
10060;BME280;5069;49.306;8.636;2023-09-18T15:01:44;99719.41;;;26.80;55.01
10060;BME280;5069;49.306;8.636;2023-09-18T15:04:46;99701.19;;;26.49;55.19
10060;BME280;5069;49.306;8.636;2023-09-18T15:07:49;99695.63;;;26.51;55.94
10060;BME280;5069;49.306;8.636;2023-09-18T15:10:50;99694.06;;;26.81;55.79
10060;BME280;5069;49.306;8.636;2023-09-18T15:13:52;99688.84;;;26.71;54.75
10060;BME280;5069;49.306;8.636;2023-09-18T15:16:53;99700.63;;;26.78;54.77
10060;BME280;5069;49.306;8.636;2023-09-18T15:19:57;99697.63;;;26.73;54.47
10060;BME280;5069;49.306;8.636;2023-09-18T15:22:58;99702.84;;;26.66;54.36
10060;BME280;5069;49.306;8.636;2023-09-18T15:26:00;99704.06;;;26.40;54.83
10060;BME280;5069;49.306;8.636;2023-09-18T15:29:02;99698.81;;;26.38;55.37
10060;BME280;5069;49.306;8.636;2023-09-18T15:32:04;99688.53;;;26.58;55.43
10060;BME280;5069;49.306;8.636;2023-09-18T15:35:07;99677.91;;;26.48;54.30
10060;BME280;5069;49.306;8.636;2023-09-18T15:38:09;99678.53;;;26.66;54.08
10060;BME280;5069;49.306;8.636;2023-09-18T15:41:11;99676.19;;;26.63;54.10
10060;BME280;5069;49.306;8.636;2023-09-18T15:44:15;99681.22;;;26.66;54.38
10060;BME280;5069;49.306;8.636;2023-09-18T15:47:17;99672.94;;;26.68;54.62
10060;BME280;5069;49.306;8.636;2023-09-18T15:50:18;99668.41;;;26.60;54.41
10060;BME280;5069;49.306;8.636;2023-09-18T15:53:20;99677.34;;;26.61;54.51
10060;BME280;5069;49.306;8.636;2023-09-18T15:56:21;99673.50;;;26.23;55.42
10060;BME280;5069;49.306;8.636;2023-09-18T15:59:23;99684.28;;;26.07;56.58
10060;BME280;5069;49.306;8.636;2023-09-18T16:02:25;99690.66;;;25.98;57.26
10060;BME280;5069;49.306;8.636;2023-09-18T16:05:27;99691.00;;;25.86;57.71
10060;BME280;5069;49.306;8.636;2023-09-18T16:08:29;99692.00;;;25.77;58.67
10060;BME280;5069;49.306;8.636;2023-09-18T16:11:31;99687.09;;;25.73;59.56
10060;BME280;5069;49.306;8.636;2023-09-18T16:14:34;99688.59;;;25.67;59.49
10060;BME280;5069;49.306;8.636;2023-09-18T16:17:36;99692.31;;;25.66;59.54
10060;BME280;5069;49.306;8.636;2023-09-18T16:20:37;99693.53;;;25.46;59.72
10060;BME280;5069;49.306;8.636;2023-09-18T16:23:39;99699.56;;;25.32;61.19